Time;durP1;ratioP1;P1;durP2;ratioP2;P2;SDS_P1;SDS_P2;PMS_P1;PMS_P2;Temp;Humidity;BMP_temperature;BMP_pressure;BME280_temperature;BME280_humidity;BME280_pressure;Samples;Min_cycle;Max_cycle;Signal;HPM_P1;HPM_P2
2021/08/20 00:00:16;;;;;;;4.70;4.30;;;18.10;99.90;;;;;;2089297;28;20082;-70
2021/08/20 00:01:17;;;;;;;4.75;4.32;;;18.10;99.90;;;;;;2089166;28;20021;-70
2021/08/20 00:02:18;;;;;;;4.88;4.38;;;18.10;99.90;;;;;;2089222;28;20028;-71
2021/08/20 00:03:18;;;;;;;5.07;4.57;;;18.10;99.90;;;;;;2089040;28;20048;-71
2021/08/20 00:04:19;;;;;;;4.78;4.35;;;18.10;99.90;;;;;;2080340;28;20079;-71
2021/08/20 00:05:19;;;;;;;5.70;5.10;;;18.10;99.90;;;;;;2079981;28;20505;-71
2021/08/20 00:06:20;;;;;;;5.78;5.07;;;18.10;99.90;;;;;;2080260;28;20457;-71
2021/08/20 00:07:21;;;;;;;5.38;4.88;;;18.20;99.90;;;;;;2079924;28;20041;-71
2021/08/20 00:08:22;;;;;;;6.88;4.95;;;18.20;99.90;;;;;;2089118;28;20860;-70
2021/08/20 00:09:22;;;;;;;5.35;4.85;;;18.20;99.90;;;;;;2088867;28;20090;-71
2021/08/20 00:10:23;;;;;;;5.22;4.57;;;18.20;99.90;;;;;;2096792;28;20074;-72
2021/08/20 00:11:24;;;;;;;5.25;4.60;;;18.20;99.90;;;;;;2096975;28;20021;-71
2021/08/20 00:12:26;;;;;;;4.60;4.20;;;18.30;99.90;;;;;;2080042;28;20021;-71
2021/08/20 00:13:27;;;;;;;4.50;4.10;;;18.20;99.90;;;;;;2080057;28;20366;-71
2021/08/20 00:14:27;;;;;;;4.32;4.00;;;18.30;99.90;;;;;;2079915;28;20036;-70
2021/08/20 00:15:30;;;;;;;4.63;4.22;;;18.30;99.90;;;;;;2096533;28;20056;-72
2021/08/20 00:16:31;;;;;;;4.68;4.28;;;18.30;99.90;;;;;;2096229;28;20036;-71
2021/08/20 00:17:32;;;;;;;4.30;3.90;;;18.30;99.90;;;;;;2088682;28;20056;-71
2021/08/20 00:18:33;;;;;;;4.25;3.88;;;18.30;99.90;;;;;;2079685;28;20151;-70
2021/08/20 00:19:34;;;;;;;4.40;4.00;;;18.30;99.90;;;;;;2079665;28;20412;-71
2021/08/20 00:20:35;;;;;;;4.40;4.00;;;18.30;99.90;;;;;;2088666;28;20021;-70
2021/08/20 00:21:36;;;;;;;4.40;4.00;;;18.30;99.90;;;;;;2087973;28;20037;-71
2021/08/20 00:22:36;;;;;;;4.38;3.97;;;18.30;99.90;;;;;;2079221;28;20060;-70
2021/08/20 00:23:37;;;;;;;4.20;3.80;;;18.30;99.90;;;;;;2079023;28;20030;-70
2021/08/20 00:24:38;;;;;;;4.65;3.90;;;18.30;99.90;;;;;;2088235;28;20107;-70
2021/08/20 00:25:38;;;;;;;4.88;4.20;;;18.30;99.90;;;;;;2088669;28;20049;-70
2021/08/20 00:26:39;;;;;;;4.40;4.00;;;18.20;99.90;;;;;;2088342;28;20064;-71
2021/08/20 00:27:40;;;;;;;4.47;4.07;;;18.30;99.90;;;;;;2087289;28;20040;-71
2021/08/20 00:28:43;;;;;;;4.40;4.00;;;18.30;99.90;;;;;;2078814;28;20075;-71
2021/08/20 00:29:44;;;;;;;4.60;4.20;;;18.30;99.90;;;;;;2079595;28;20087;-71
2021/08/20 00:30:47;;;;;;;4.35;3.95;;;18.30;99.90;;;;;;2088736;28;20029;-70
2021/08/20 00:31:48;;;;;;;4.78;3.67;;;18.30;99.90;;;;;;2088872;28;20025;-71
2021/08/20 00:32:48;;;;;;;4.38;3.97;;;18.30;99.90;;;;;;2088769;28;20029;-71
2021/08/20 00:33:49;;;;;;;4.10;3.70;;;18.30;99.90;;;;;;2088961;28;20549;-70
2021/08/20 00:34:51;;;;;;;4.30;3.90;;;18.30;99.90;;;;;;2088656;28;20070;-71
2021/08/20 00:35:54;;;;;;;5.30;4.25;;;18.30;99.90;;;;;;2088829;28;20136;-70
2021/08/20 00:36:55;;;;;;;4.30;3.88;;;18.30;99.90;;;;;;2088702;28;20029;-70
2021/08/20 00:37:56;;;;;;;5.00;4.38;;;18.30;99.90;;;;;;2079638;28;20029;-71
2021/08/20 00:38:58;;;;;;;5.13;4.20;;;18.30;99.90;;;;;;2079575;28;20029;-71
2021/08/20 00:39:59;;;;;;;4.35;3.95;;;18.30;99.90;;;;;;2088523;28;20460;-71
2021/08/20 00:40:59;;;;;;;4.85;4.45;;;18.40;99.90;;;;;;2088670;28;20025;-70
2021/08/20 00:42:00;;;;;;;5.47;4.13;;;18.40;99.90;;;;;;2079769;28;20530;-70
2021/08/20 00:43:00;;;;;;;4.60;4.20;;;18.40;99.90;;;;;;2071651;28;20030;-71
2021/08/20 00:44:01;;;;;;;4.55;4.10;;;18.40;99.90;;;;;;2079780;28;20029;-70
2021/08/20 00:45:03;;;;;;;4.43;4.03;;;18.40;99.90;;;;;;2079835;28;20113;-71
2021/08/20 00:46:03;;;;;;;4.50;4.10;;;18.40;99.90;;;;;;2079967;28;20025;-70
2021/08/20 00:47:04;;;;;;;4.50;4.03;;;18.40;99.90;;;;;;2080101;28;20065;-71
2021/08/20 00:48:06;;;;;;;5.68;4.45;;;18.40;99.90;;;;;;2089787;28;20036;-70
2021/08/20 00:49:06;;;;;;;5.18;4.22;;;18.40;99.90;;;;;;2089722;28;20025;-70
2021/08/20 00:50:09;;;;;;;6.72;4.43;;;18.40;99.90;;;;;;2081096;28;20022;-70
2021/08/20 00:51:25;;;;;;;4.22;3.83;;;18.40;99.90;;;;;;2081411;28;20044;-70
2021/08/20 00:52:25;;;;;;;4.60;4.20;;;18.40;99.90;;;;;;2073389;28;20034;-70
2021/08/20 00:53:27;;;;;;;5.78;4.43;;;18.40;99.90;;;;;;2073561;28;20552;-71
2021/08/20 00:54:28;;;;;;;4.50;3.95;;;18.40;99.80;;;;;;2090075;28;20013;-71
2021/08/20 00:55:28;;;;;;;4.82;4.05;;;18.40;99.80;;;;;;2090130;28;20028;-71
2021/08/20 00:56:29;;;;;;;5.93;4.88;;;18.40;99.70;;;;;;2090216;28;20082;-71
2021/08/20 00:57:30;;;;;;;5.45;4.60;;;18.40;99.70;;;;;;2089760;28;20017;-71
2021/08/20 00:58:35;;;;;;;5.28;4.40;;;18.40;99.60;;;;;;2090050;28;20041;-71
2021/08/20 00:59:35;;;;;;;6.28;4.65;;;18.40;99.70;;;;;;2090159;28;20151;-72
2021/08/20 01:00:40;;;;;;;5.93;4.20;;;18.40;99.30;;;;;;2090221;28;20079;-71
2021/08/20 01:01:40;;;;;;;5.10;4.22;;;18.40;99.40;;;;;;2090211;28;20033;-70
2021/08/20 01:02:41;;;;;;;4.50;4.10;;;18.40;99.50;;;;;;2081278;28;20079;-72
2021/08/20 01:03:42;;;;;;;5.13;4.40;;;18.40;99.50;;;;;;2081435;28;20040;-70
2021/08/20 01:04:44;;;;;;;4.80;4.30;;;18.40;99.40;;;;;;2081325;28;20025;-71
2021/08/20 01:05:44;;;;;;;5.53;4.57;;;18.40;99.40;;;;;;2081306;28;20075;-71
2021/08/20 01:06:45;;;;;;;5.22;4.32;;;18.40;99.40;;;;;;2090316;28;20033;-71
2021/08/20 01:07:47;;;;;;;4.60;4.20;;;18.40;99.50;;;;;;2080956;28;20052;-71
2021/08/20 01:08:48;;;;;;;4.53;4.13;;;18.40;99.50;;;;;;2081098;28;20021;-71
2021/08/20 01:09:49;;;;;;;5.78;4.40;;;18.40;99.40;;;;;;2080977;28;20034;-71
2021/08/20 01:10:51;;;;;;;4.65;4.25;;;18.40;99.50;;;;;;2090176;28;20025;-71
2021/08/20 01:11:52;;;;;;;4.68;4.18;;;18.40;99.60;;;;;;2081408;28;20041;-71
2021/08/20 01:12:54;;;;;;;5.60;4.13;;;18.40;99.60;;;;;;2081156;28;20033;-71
2021/08/20 01:13:54;;;;;;;5.45;4.60;;;18.40;99.70;;;;;;2073199;28;20046;-71
2021/08/20 01:14:55;;;;;;;4.95;4.20;;;18.40;99.80;;;;;;2081091;28;20022;-71
2021/08/20 01:15:56;;;;;;;4.55;4.13;;;18.40;99.80;;;;;;2081048;28;20025;-70
2021/08/20 01:16:58;;;;;;;4.85;4.25;;;18.40;99.80;;;;;;2081043;28;20021;-71
2021/08/20 01:17:59;;;;;;;5.68;4.55;;;18.40;99.90;;;;;;2080972;28;20473;-71
2021/08/20 01:19:01;;;;;;;5.10;4.50;;;18.40;99.90;;;;;;2081114;28;20085;-71
2021/08/20 01:20:06;;;;;;;5.03;4.45;;;18.40;99.90;;;;;;2081172;28;20044;-71
2021/08/20 01:21:09;;;;;;;5.38;4.50;;;18.40;99.80;;;;;;2081915;28;20033;-71
2021/08/20 01:22:10;;;;;;;6.10;4.68;;;18.40;99.70;;;;;;2081486;28;20069;-70
2021/08/20 01:23:21;;;;;;;4.90;4.40;;;18.40;99.70;;;;;;2081123;28;20037;-71
2021/08/20 01:24:21;;;;;;;5.03;4.50;;;18.40;99.80;;;;;;2080595;28;20037;-70
2021/08/20 01:25:22;;;;;;;5.03;4.53;;;18.40;99.80;;;;;;2081037;28;20033;-70
2021/08/20 01:26:24;;;;;;;4.57;4.18;;;18.40;99.80;;;;;;2073330;28;20030;-70
2021/08/20 01:27:24;;;;;;;5.43;3.97;;;18.40;99.90;;;;;;2072754;28;20036;-71
2021/08/20 01:28:26;;;;;;;4.55;4.15;;;18.40;99.90;;;;;;2073502;28;20401;-71
2021/08/20 01:29:27;;;;;;;4.65;4.25;;;18.40;99.90;;;;;;2081081;28;20408;-71
2021/08/20 01:30:27;;;;;;;4.88;4.10;;;18.40;99.90;;;;;;2081161;28;20049;-71
2021/08/20 01:31:29;;;;;;;5.20;4.70;;;18.40;99.90;;;;;;2080888;28;20565;-72
2021/08/20 01:32:30;;;;;;;5.00;4.20;;;18.40;99.90;;;;;;2080946;28;20037;-71
2021/08/20 01:33:31;;;;;;;4.85;4.22;;;18.40;99.90;;;;;;2073898;28;20056;-70
2021/08/20 01:34:31;;;;;;;6.57;4.40;;;18.40;99.90;;;;;;2082102;28;20025;-72
2021/08/20 01:35:33;;;;;;;4.55;4.13;;;18.40;99.90;;;;;;2082052;28;20092;-71
2021/08/20 01:36:34;;;;;;;5.45;4.43;;;18.40;99.90;;;;;;2082402;28;20026;-72
2021/08/20 01:37:35;;;;;;;4.85;4.22;;;18.40;99.90;;;;;;2081480;28;20117;-71
2021/08/20 01:38:53;;;;;;;4.50;4.10;;;18.40;99.90;;;;;;2081162;28;20057;-70
2021/08/20 01:39:54;;;;;;;4.80;4.40;;;18.30;99.90;;;;;;2080950;28;20037;-70
2021/08/20 01:40:55;;;;;;;4.30;3.90;;;18.30;99.90;;;;;;2081071;28;20033;-70
2021/08/20 01:41:56;;;;;;;4.38;3.97;;;18.30;99.90;;;;;;2072755;28;20101;-71
2021/08/20 01:42:56;;;;;;;5.50;4.18;;;18.30;99.90;;;;;;2080869;28;20022;-70
2021/08/20 01:44:00;;;;;;;4.53;4.13;;;18.30;99.90;;;;;;2080804;28;20017;-70
2021/08/20 01:45:01;;;;;;;4.63;4.13;;;18.30;99.90;;;;;;2081101;28;20025;-71
2021/08/20 01:46:04;;;;;;;4.47;4.05;;;18.30;99.90;;;;;;2080809;28;20382;-71
2021/08/20 01:47:08;;;;;;;5.07;4.40;;;18.30;99.90;;;;;;2080659;28;20037;-70
2021/08/20 01:48:09;;;;;;;5.63;4.80;;;18.30;99.90;;;;;;2080721;28;20083;-71
2021/08/20 01:49:10;;;;;;;5.85;4.72;;;18.30;99.90;;;;;;2080460;28;20014;-70
2021/08/20 01:50:12;;;;;;;5.68;4.95;;;18.30;99.90;;;;;;2072663;28;20021;-70
2021/08/20 01:51:23;;;;;;;5.63;4.72;;;18.30;99.90;;;;;;2080908;28;20033;-70
2021/08/20 01:52:25;;;;;;;5.43;4.93;;;18.30;99.90;;;;;;2080773;28;20083;-71
2021/08/20 01:53:26;;;;;;;5.45;4.95;;;18.30;99.90;;;;;;2072466;28;20101;-71
2021/08/20 01:54:27;;;;;;;5.25;4.75;;;18.30;99.90;;;;;;2080405;28;20504;-71
2021/08/20 01:55:28;;;;;;;5.43;4.60;;;18.30;99.90;;;;;;2080676;28;20022;-71
2021/08/20 01:56:34;;;;;;;5.82;5.22;;;18.30;99.90;;;;;;2080627;28;20061;-71
2021/08/20 01:57:46;;;;;;;5.63;5.10;;;18.30;99.90;;;;;;2073328;28;20584;-70
2021/08/20 01:58:52;;;;;;;5.13;4.63;;;18.30;99.90;;;;;;2079367;28;20408;-71
2021/08/20 01:59:53;;;;;;;5.35;4.82;;;18.30;99.90;;;;;;2072296;28;20117;-71
2021/08/20 02:00:53;;;;;;;8.30;5.90;;;18.20;99.90;;;;;;2072532;28;20084;-71
2021/08/20 02:01:56;;;;;;;8.18;5.95;;;18.30;99.90;;;;;;2072777;28;20204;-70
2021/08/20 02:02:59;;;;;;;6.82;5.80;;;18.20;99.90;;;;;;2080551;28;20033;-70
2021/08/20 02:04:00;;;;;;;6.68;5.43;;;18.20;99.90;;;;;;2072515;28;20048;-70
2021/08/20 02:05:03;;;;;;;5.70;4.95;;;18.20;99.90;;;;;;2072744;28;20026;-71
2021/08/20 02:06:07;;;;;;;6.18;5.55;;;18.20;99.90;;;;;;2072567;28;20121;-71
2021/08/20 02:07:11;;;;;;;9.52;6.32;;;18.20;99.90;;;;;;2072760;28;20193;-71
2021/08/20 02:08:15;;;;;;;6.88;6.00;;;18.20;99.90;;;;;;2072618;28;20033;-71
2021/08/20 02:09:19;;;;;;;6.40;5.40;;;18.20;99.90;;;;;;2072465;28;20113;-72
2021/08/20 02:10:20;;;;;;;5.95;5.28;;;18.20;99.90;;;;;;2071973;28;20113;-73
2021/08/20 02:11:23;;;;;;;7.28;5.40;;;18.20;99.90;;;;;;2072934;28;20042;-73
2021/08/20 02:12:28;;;;;;;5.80;5.13;;;18.20;99.90;;;;;;2073130;28;20014;-71
2021/08/20 02:13:39;;;;;;;6.60;5.57;;;18.20;99.90;;;;;;2073737;28;20728;-71
2021/08/20 02:14:41;;;;;;;5.55;5.03;;;18.20;99.90;;;;;;2072160;28;20068;-71
2021/08/20 02:15:42;;;;;;;6.13;5.38;;;18.20;99.90;;;;;;2080637;28;20072;-71
2021/08/20 02:16:42;;;;;;;5.97;5.38;;;18.20;99.90;;;;;;2072313;28;20124;-71
2021/08/20 02:17:49;;;;;;;6.00;5.40;;;18.20;99.90;;;;;;2080122;28;20029;-70
2021/08/20 02:18:52;;;;;;;5.72;5.13;;;18.20;99.90;;;;;;2080806;28;20519;-70
2021/08/20 02:19:56;;;;;;;7.60;5.68;;;18.20;99.90;;;;;;2080231;28;20017;-70
2021/08/20 02:20:59;;;;;;;6.22;5.63;;;18.20;99.90;;;;;;2080536;28;20021;-70
2021/08/20 02:22:02;;;;;;;7.05;5.50;;;18.20;99.90;;;;;;2080522;28;20456;-71
2021/08/20 02:23:18;;;;;;;5.75;5.05;;;18.20;99.90;;;;;;2080554;28;20044;-71
2021/08/20 02:24:21;;;;;;;5.95;5.35;;;18.20;99.90;;;;;;2072579;28;20038;-70
2021/08/20 02:25:23;;;;;;;5.35;4.85;;;18.20;99.90;;;;;;2081138;28;20051;-71
2021/08/20 02:26:25;;;;;;;5.47;4.97;;;18.20;99.90;;;;;;2072242;28;20603;-70
2021/08/20 02:27:25;;;;;;;5.90;5.40;;;18.20;99.90;;;;;;2071715;28;20037;-70
2021/08/20 02:28:32;;;;;;;5.50;5.00;;;18.20;99.90;;;;;;2072706;28;20022;-71
2021/08/20 02:29:34;;;;;;;6.38;5.13;;;18.10;99.90;;;;;;2079816;28;20025;-70
2021/08/20 02:30:38;;;;;;;5.57;4.97;;;18.20;99.90;;;;;;2080432;28;20094;-70
2021/08/20 02:31:43;;;;;;;6.35;5.28;;;18.20;99.90;;;;;;2080368;28;20056;-71
2021/08/20 02:32:47;;;;;;;6.28;5.30;;;18.10;99.90;;;;;;2081290;28;20646;-70
2021/08/20 02:33:50;;;;;;;5.20;4.70;;;18.10;99.90;;;;;;2081823;28;20116;-70
2021/08/20 02:34:54;;;;;;;5.43;4.93;;;18.10;99.90;;;;;;2073955;28;20057;-71
2021/08/20 02:35:57;;;;;;;5.57;5.00;;;18.10;99.90;;;;;;2073971;28;20022;-70
2021/08/20 02:36:57;;;;;;;5.32;4.82;;;18.10;99.90;;;;;;2073300;28;20026;-72
2021/08/20 02:37:58;;;;;;;5.55;4.85;;;18.10;99.90;;;;;;2081057;28;20469;-71
2021/08/20 02:38:58;;;;;;;5.43;4.93;;;18.10;99.90;;;;;;2081600;28;20120;-70
2021/08/20 02:40:00;;;;;;;5.30;4.80;;;18.10;99.90;;;;;;2073832;28;20096;-70
2021/08/20 02:41:01;;;;;;;5.43;4.93;;;18.00;99.90;;;;;;2074256;28;20037;-70
2021/08/20 02:42:02;;;;;;;6.50;5.22;;;18.00;99.90;;;;;;2072449;28;20033;-70
2021/08/20 02:43:02;;;;;;;5.25;4.75;;;18.00;99.90;;;;;;2072505;28;20313;-70
2021/08/20 02:44:03;;;;;;;6.28;5.40;;;18.00;99.90;;;;;;2080407;28;20041;-70
2021/08/20 02:45:05;;;;;;;5.82;5.22;;;18.00;99.90;;;;;;2080742;28;20511;-70
2021/08/20 02:46:05;;;;;;;5.60;5.05;;;18.00;99.90;;;;;;2080263;28;20099;-70
2021/08/20 02:47:06;;;;;;;6.07;5.47;;;17.90;99.90;;;;;;2072235;28;20034;-70
2021/08/20 02:48:07;;;;;;;7.25;5.88;;;18.00;99.90;;;;;;2080021;28;20083;-70
2021/08/20 02:49:09;;;;;;;6.38;5.70;;;18.00;99.90;;;;;;2079824;28;20023;-70
2021/08/20 02:50:10;;;;;;;6.68;5.97;;;17.90;99.90;;;;;;2072228;28;20018;-69
2021/08/20 02:51:11;;;;;;;6.93;6.20;;;17.90;99.90;;;;;;2072162;28;20018;-69
2021/08/20 02:52:12;;;;;;;6.78;5.82;;;17.90;99.90;;;;;;2080590;28;20021;-70
2021/08/20 02:53:13;;;;;;;6.85;6.13;;;17.90;99.90;;;;;;2080214;28;20033;-69
2021/08/20 02:54:13;;;;;;;7.55;6.10;;;17.90;99.90;;;;;;2080062;28;20029;-70
2021/08/20 02:55:15;;;;;;;7.60;6.28;;;17.90;99.90;;;;;;2080528;28;20057;-70
2021/08/20 02:56:17;;;;;;;7.32;5.82;;;17.90;99.90;;;;;;2071983;28;20843;-70
2021/08/20 02:57:29;;;;;;;7.78;5.88;;;17.90;99.90;;;;;;2079762;28;20034;-70
2021/08/20 02:58:32;;;;;;;7.00;5.70;;;17.90;99.90;;;;;;2071863;28;20026;-69
2021/08/20 02:59:37;;;;;;;7.65;6.20;;;17.90;99.90;;;;;;2072509;28;20030;-69
2021/08/20 03:00:39;;;;;;;7.40;6.00;;;17.90;99.90;;;;;;2079959;28;20579;-69
2021/08/20 03:01:40;;;;;;;6.68;5.60;;;17.90;99.90;;;;;;2080214;28;20025;-70
2021/08/20 03:02:47;;;;;;;6.65;5.68;;;17.90;99.90;;;;;;2080135;28;20026;-70
2021/08/20 03:03:48;;;;;;;6.63;5.93;;;17.80;99.90;;;;;;2080040;28;20022;-71
2021/08/20 03:04:56;;;;;;;6.95;5.82;;;17.80;99.90;;;;;;2072714;28;20013;-71
2021/08/20 03:05:57;;;;;;;7.13;6.05;;;17.80;99.90;;;;;;2080065;28;20029;-71
2021/08/20 03:06:57;;;;;;;7.18;5.90;;;17.80;99.90;;;;;;2080042;28;20033;-71
2021/08/20 03:08:06;;;;;;;6.68;5.93;;;17.80;99.90;;;;;;2080068;28;20049;-71
2021/08/20 03:09:08;;;;;;;6.97;5.93;;;17.80;99.90;;;;;;2079900;28;20032;-71
2021/08/20 03:10:12;;;;;;;7.78;6.55;;;17.80;99.90;;;;;;2072290;28;20018;-71
2021/08/20 03:11:13;;;;;;;6.90;6.00;;;17.80;99.90;;;;;;2080238;28;20029;-71
2021/08/20 03:12:15;;;;;;;6.75;6.00;;;17.80;99.90;;;;;;2072151;28;20802;-71
2021/08/20 03:13:23;;;;;;;7.18;6.07;;;17.80;99.90;;;;;;2073311;28;20030;-71
2021/08/20 03:14:28;;;;;;;7.30;5.93;;;17.70;99.90;;;;;;2072339;28;20668;-71
2021/08/20 03:15:29;;;;;;;7.90;6.03;;;17.80;99.90;;;;;;2072110;28;20030;-71
2021/08/20 03:16:33;;;;;;;6.07;5.47;;;17.70;99.90;;;;;;2072620;28;20022;-71
2021/08/20 03:17:39;;;;;;;6.93;6.00;;;17.80;99.90;;;;;;2072014;28;20037;-70
2021/08/20 03:18:44;;;;;;;6.85;6.00;;;17.80;99.90;;;;;;2072129;28;20521;-72
2021/08/20 03:19:50;;;;;;;6.47;5.78;;;17.80;99.90;;;;;;2079825;28;20030;-71
2021/08/20 03:20:51;;;;;;;7.60;6.10;;;17.80;99.90;;;;;;2080285;28;20108;-71
2021/08/20 03:22:12;;;;;;;8.65;6.40;;;17.80;99.90;;;;;;2074568;28;20564;-70
2021/08/20 03:23:13;;;;;;;6.85;6.10;;;17.80;99.90;;;;;;2080435;28;20021;-70
2021/08/20 03:24:14;;;;;;;7.28;6.53;;;17.80;99.90;;;;;;2080027;28;20100;-71
2021/08/20 03:25:15;;;;;;;6.90;6.20;;;17.80;99.90;;;;;;2079943;28;20373;-72
2021/08/20 03:26:16;;;;;;;7.90;6.43;;;17.70;99.90;;;;;;2071978;28;20026;-72
2021/08/20 03:27:27;;;;;;;7.78;6.45;;;17.80;99.90;;;;;;2073014;28;20633;-72
2021/08/20 03:28:46;;;;;;;6.88;6.18;;;17.80;99.90;;;;;;2073984;28;20117;-72
2021/08/20 03:29:47;;;;;;;7.38;6.30;;;17.70;99.90;;;;;;2071775;28;20033;-71
2021/08/20 03:30:55;;;;;;;7.32;6.43;;;17.70;99.90;;;;;;2078960;28;20017;-72
2021/08/20 03:31:57;;;;;;;7.10;6.40;;;17.70;99.90;;;;;;2079766;28;20026;-71
2021/08/20 03:32:58;;;;;;;7.03;6.32;;;17.70;99.90;;;;;;2071776;28;20033;-71
2021/08/20 03:33:58;;;;;;;7.00;6.30;;;17.70;99.90;;;;;;2079991;28;20097;-71
2021/08/20 03:34:59;;;;;;;7.03;6.32;;;17.70;99.90;;;;;;2080011;28;20033;-71
2021/08/20 03:36:00;;;;;;;8.68;6.80;;;17.70;99.90;;;;;;2071851;28;20022;-70
2021/08/20 03:37:01;;;;;;;8.05;6.78;;;17.70;99.90;;;;;;2072020;28;20026;-70
2021/08/20 03:38:11;;;;;;;7.57;6.57;;;17.70;99.90;;;;;;2073033;28;20029;-70
2021/08/20 03:39:12;;;;;;;7.93;6.40;;;17.70;99.90;;;;;;2079412;28;20033;-71
2021/08/20 03:40:13;;;;;;;6.63;5.88;;;17.70;99.90;;;;;;2079681;28;20529;-70
2021/08/20 03:41:22;;;;;;;8.63;6.60;;;17.70;99.90;;;;;;2079800;28;20033;-71
2021/08/20 03:42:34;;;;;;;8.73;7.05;;;17.70;99.90;;;;;;2073581;28;20231;-71
2021/08/20 03:43:59;;;;;;;7.25;6.53;;;17.70;99.90;;;;;;2075128;28;20025;-71
2021/08/20 03:45:01;;;;;;;8.52;6.78;;;17.70;99.90;;;;;;2079978;28;20033;-70
2021/08/20 03:46:03;;;;;;;8.45;6.80;;;17.70;99.90;;;;;;2079642;28;20041;-70
2021/08/20 03:47:05;;;;;;;8.40;6.90;;;17.70;99.90;;;;;;2071748;28;20025;-70
2021/08/20 03:48:06;;;;;;;8.52;7.43;;;17.70;99.90;;;;;;2079247;28;20018;-70
2021/08/20 03:49:07;;;;;;;8.05;6.95;;;17.80;99.90;;;;;;2079429;28;20032;-69
2021/08/20 03:50:09;;;;;;;9.57;7.53;;;17.80;99.90;;;;;;2079677;28;20021;-70
2021/08/20 03:51:11;;;;;;;8.55;7.60;;;17.80;99.90;;;;;;2071913;28;20653;-70
2021/08/20 03:52:12;;;;;;;9.90;7.20;;;17.80;99.90;;;;;;2071781;28;20029;-69
2021/08/20 03:53:15;;;;;;;8.70;7.45;;;17.80;99.90;;;;;;2071722;28;20497;-70
2021/08/20 03:54:19;;;;;;;8.55;7.35;;;17.80;99.90;;;;;;2071875;28;20143;-70
2021/08/20 03:55:20;;;;;;;8.13;7.03;;;17.80;99.90;;;;;;2079596;28;20025;-70
2021/08/20 03:56:52;;;;;;;8.25;6.88;;;17.80;99.90;;;;;;2080535;28;20504;-70
2021/08/20 03:57:55;;;;;;;7.80;6.85;;;17.80;99.90;;;;;;2079220;28;20033;-70
2021/08/20 03:58:58;;;;;;;8.95;6.63;;;17.80;99.90;;;;;;2079551;28;20059;-70
2021/08/20 04:00:00;;;;;;;8.85;7.10;;;17.80;99.90;;;;;;2079786;28;20425;-70
2021/08/20 04:01:06;;;;;;;7.93;6.72;;;17.80;99.90;;;;;;2071653;28;20029;-70
2021/08/20 04:02:07;;;;;;;9.32;7.28;;;17.80;99.90;;;;;;2072269;28;20053;-70
2021/08/20 04:03:09;;;;;;;9.13;7.55;;;17.80;99.90;;;;;;2071834;28;20088;-69
2021/08/20 04:04:10;;;;;;;8.23;7.10;;;17.80;99.90;;;;;;2071721;28;20113;-70
2021/08/20 04:05:22;;;;;;;7.73;6.83;;;17.90;99.90;;;;;;2072929;28;20042;-69
2021/08/20 04:06:28;;;;;;;9.00;6.57;;;17.90;99.90;;;;;;2079797;28;20515;-70
2021/08/20 04:07:28;;;;;;;7.30;6.55;;;17.90;99.90;;;;;;2071056;28;20053;-69
2021/08/20 04:08:40;;;;;;;7.28;6.55;;;17.90;99.90;;;;;;2079470;28;20034;-70
2021/08/20 04:10:00;;;;;;;7.55;6.75;;;17.90;99.90;;;;;;2082814;28;20041;-70
2021/08/20 04:11:17;;;;;;;8.23;6.75;;;17.80;99.90;;;;;;2079595;28;20152;-70
2021/08/20 04:12:39;;;;;;;8.45;7.03;;;17.80;99.90;;;;;;2079841;28;20025;-70
2021/08/20 04:13:55;;;;;;;7.68;6.85;;;17.80;99.90;;;;;;2073786;28;20033;-70
2021/08/20 04:14:56;;;;;;;7.43;6.50;;;17.80;99.90;;;;;;2071624;28;20149;-69
2021/08/20 04:15:56;;;;;;;7.65;6.55;;;17.80;99.90;;;;;;2071655;28;20472;-70
2021/08/20 04:16:57;;;;;;;8.43;6.63;;;17.80;99.90;;;;;;2071628;28;20081;-70
2021/08/20 04:17:57;;;;;;;7.50;6.70;;;17.80;99.90;;;;;;2071019;28;20038;-69
2021/08/20 04:18:58;;;;;;;9.50;6.80;;;17.80;99.90;;;;;;2079287;28;20026;-70
2021/08/20 04:19:59;;;;;;;7.72;6.85;;;17.80;99.90;;;;;;2071658;28;20022;-70
2021/08/20 04:20:59;;;;;;;8.30;6.85;;;17.80;99.90;;;;;;2071693;28;20041;-70
2021/08/20 04:22:00;;;;;;;8.60;7.15;;;17.80;99.90;;;;;;2080291;28;20109;-71
2021/08/20 04:23:01;;;;;;;9.07;6.93;;;17.80;99.90;;;;;;2081784;28;20191;-70
2021/08/20 04:24:01;;;;;;;7.60;6.80;;;17.80;99.90;;;;;;2081612;28;20029;-70
2021/08/20 04:25:03;;;;;;;8.48;6.75;;;17.80;99.90;;;;;;2081583;28;20029;-70
2021/08/20 04:26:22;;;;;;;7.72;6.63;;;17.80;99.90;;;;;;2084379;28;20037;-70
2021/08/20 04:27:31;;;;;;;10.15;8.23;;;17.80;99.90;;;;;;2080995;28;20175;-69
2021/08/20 04:28:37;;;;;;;10.15;7.88;;;17.80;99.90;;;;;;2081262;28;20025;-70
2021/08/20 04:30:07;;;;;;;8.75;7.78;;;17.80;99.90;;;;;;2076432;28;20032;-70
2021/08/20 04:31:22;;;;;;;12.15;8.27;;;17.80;99.90;;;;;;2081394;28;20025;-70
2021/08/20 04:32:42;;;;;;;10.02;8.02;;;17.70;99.90;;;;;;2084201;28;20072;-70
2021/08/20 04:34:14;;;;;;;9.23;7.63;;;17.80;99.90;;;;;;2072834;28;20014;-70
2021/08/20 04:35:26;;;;;;;9.90;7.45;;;17.80;99.90;;;;;;2089832;28;20040;-70
2021/08/20 04:36:45;;;;;;;7.72;6.93;;;17.80;99.90;;;;;;2090490;28;20124;-70
2021/08/20 04:38:12;;;;;;;9.00;7.07;;;17.80;99.90;;;;;;2075600;28;20087;-70
2021/08/20 04:39:31;;;;;;;8.43;6.93;;;17.80;99.90;;;;;;2087638;28;20404;-70
2021/08/20 04:41:01;;;;;;;8.25;6.90;;;17.80;99.90;;;;;;2072692;28;20022;-71
2021/08/20 04:42:14;;;;;;;8.23;6.82;;;17.80;99.90;;;;;;2074224;28;20038;-70
2021/08/20 04:43:44;;;;;;;7.93;6.55;;;17.80;99.90;;;;;;2078161;28;20071;-70
2021/08/20 04:45:18;;;;;;;8.48;6.85;;;17.80;99.90;;;;;;2081204;28;20139;-70
2021/08/20 04:46:39;;;;;;;7.32;6.60;;;17.80;99.90;;;;;;2084084;28;20112;-70
2021/08/20 04:48:11;;;;;;;7.85;6.50;;;17.80;99.90;;;;;;2076705;28;20030;-70
2021/08/20 04:49:41;;;;;;;6.75;6.03;;;17.80;99.90;;;;;;2072768;28;20030;-70
2021/08/20 04:51:02;;;;;;;6.88;6.10;;;17.80;99.90;;;;;;2042288;29;20043;-70
2021/08/20 04:52:09;;;;;;;7.53;6.30;;;17.80;99.90;;;;;;2072926;28;20021;-70
2021/08/20 04:53:30;;;;;;;7.05;5.82;;;17.80;99.90;;;;;;2084260;28;20045;-71
2021/08/20 04:54:44;;;;;;;6.80;6.07;;;17.80;99.90;;;;;;2090266;28;20028;-71
2021/08/20 04:55:46;;;;;;;5.82;5.30;;;17.90;99.90;;;;;;2081460;28;20459;-70
2021/08/20 04:56:47;;;;;;;6.75;6.05;;;17.90;99.90;;;;;;2073303;28;20041;-71
2021/08/20 04:57:47;;;;;;;6.82;6.13;;;17.90;99.90;;;;;;2080717;28;20064;-70
2021/08/20 04:58:48;;;;;;;7.15;6.03;;;17.90;99.90;;;;;;2089631;28;20055;-71
2021/08/20 04:59:49;;;;;;;6.97;6.28;;;18.00;99.90;;;;;;2081120;28;20034;-71
2021/08/20 05:00:49;;;;;;;6.57;5.88;;;17.90;99.90;;;;;;2081182;28;20032;-70
2021/08/20 05:01:50;;;;;;;7.18;5.95;;;17.90;99.90;;;;;;2072938;28;20516;-70
2021/08/20 05:02:51;;;;;;;6.65;5.93;;;18.00;99.90;;;;;;2073016;28;20120;-70
2021/08/20 05:03:52;;;;;;;6.50;5.80;;;18.00;99.90;;;;;;2081121;28;20509;-70
2021/08/20 05:04:53;;;;;;;6.88;6.10;;;18.00;99.90;;;;;;2081372;28;20033;-70
2021/08/20 05:05:54;;;;;;;6.72;6.03;;;18.00;99.90;;;;;;2090124;28;20504;-70
2021/08/20 05:06:54;;;;;;;6.70;6.00;;;18.00;99.90;;;;;;2089954;28;20552;-71
2021/08/20 05:07:55;;;;;;;6.75;6.05;;;18.00;99.90;;;;;;2089591;28;20044;-71
2021/08/20 05:08:55;;;;;;;7.53;6.25;;;18.10;99.90;;;;;;2089517;28;20084;-70
2021/08/20 05:09:57;;;;;;;6.53;5.63;;;18.10;99.90;;;;;;2089941;28;20017;-70
2021/08/20 05:10:58;;;;;;;6.70;6.00;;;18.10;99.90;;;;;;2090000;28;20017;-70
2021/08/20 05:12:02;;;;;;;7.53;5.95;;;18.10;99.90;;;;;;2090086;28;20079;-70
2021/08/20 05:13:02;;;;;;;6.93;6.18;;;18.10;99.90;;;;;;2081080;28;20120;-71
2021/08/20 05:14:03;;;;;;;7.82;6.15;;;18.10;99.90;;;;;;2081433;28;20103;-70
2021/08/20 05:15:05;;;;;;;7.18;6.20;;;18.10;99.90;;;;;;2090345;28;20033;-70
2021/08/20 05:16:06;;;;;;;12.05;6.68;;;18.20;99.90;;;;;;2090230;28;20074;-70
2021/08/20 05:17:06;;;;;;;9.65;6.50;;;18.10;99.90;;;;;;2081484;28;20075;-70
2021/08/20 05:18:08;;;;;;;8.75;6.53;;;18.20;99.90;;;;;;2081572;28;20738;-71
2021/08/20 05:19:08;;;;;;;10.52;6.93;;;18.20;99.90;;;;;;2089971;28;20388;-71
2021/08/20 05:20:10;;;;;;;9.55;6.95;;;18.20;99.90;;;;;;2073360;28;20030;-71
2021/08/20 05:21:10;;;;;;;9.32;6.78;;;18.20;99.90;;;;;;2074020;28;20113;-71
2021/08/20 05:22:11;;;;;;;12.15;6.88;;;18.20;99.90;;;;;;2082546;28;20051;-70
2021/08/20 05:23:13;;;;;;;10.38;7.20;;;18.20;99.90;;;;;;2092434;28;20021;-70
2021/08/20 05:24:13;;;;;;;11.23;6.50;;;18.20;99.90;;;;;;2092432;28;20067;-70
2021/08/20 05:25:15;;;;;;;10.63;6.80;;;18.20;99.90;;;;;;2093222;28;20025;-70
2021/08/20 05:26:16;;;;;;;10.73;6.80;;;18.20;99.90;;;;;;2085336;28;20072;-71
2021/08/20 05:27:17;;;;;;;13.55;7.25;;;18.20;99.90;;;;;;2085005;28;20030;-71
2021/08/20 05:28:17;;;;;;;11.90;6.70;;;18.20;99.90;;;;;;2086247;28;20033;-70
2021/08/20 05:29:18;;;;;;;11.70;7.18;;;18.20;99.90;;;;;;2087563;28;20029;-71
2021/08/20 05:30:19;;;;;;;11.02;7.00;;;18.20;99.90;;;;;;2100224;28;20029;-71
2021/08/20 05:31:19;;;;;;;13.32;7.22;;;18.30;99.90;;;;;;2100380;28;20041;-70
2021/08/20 05:32:20;;;;;;;11.38;6.95;;;18.30;99.90;;;;;;2100704;28;20089;-71